Time;durP1;ratioP1;P1;durP2;ratioP2;P2;SDS_P1;SDS_P2;PMS_P1;PMS_P2;Temp;Humidity;BMP_temperature;BMP_pressure;BME280_temperature;BME280_humidity;BME280_pressure;Samples;Min_cycle;Max_cycle;Signal;HPM_P1;HPM_P2
2023/05/01 00:01:14;;;;;;;10.77;6.47;;;9.50;99.90;;;;;;5022723;28;20051;-61
2023/05/01 00:03:40;;;;;;;12.77;6.07;;;9.50;99.90;;;;;;5023778;28;20528;-61
2023/05/01 00:06:06;;;;;;;12.88;6.70;;;9.50;99.90;;;;;;5018479;28;20053;-62
2023/05/01 00:08:32;;;;;;;13.40;7.13;;;9.40;99.90;;;;;;4998391;28;20397;-62
2023/05/01 00:11:04;;;;;;;12.63;6.90;;;9.40;99.90;;;;;;5000696;28;20042;-61
2023/05/01 00:13:32;;;;;;;13.15;6.70;;;9.40;99.90;;;;;;5015341;28;20632;-61
2023/05/01 00:15:58;;;;;;;11.82;6.47;;;9.40;99.90;;;;;;5008719;28;20330;-61
2023/05/01 00:18:24;;;;;;;9.77;6.18;;;9.40;99.90;;;;;;5017288;28;20047;-61
2023/05/01 00:20:50;;;;;;;12.50;7.00;;;9.30;99.90;;;;;;5013795;28;20041;-61
2023/05/01 00:23:15;;;;;;;9.60;6.70;;;9.40;99.90;;;;;;5018121;28;20156;-61
2023/05/01 00:25:41;;;;;;;9.27;6.53;;;9.30;99.90;;;;;;5003302;28;20132;-61
2023/05/01 00:28:07;;;;;;;12.05;6.60;;;9.30;99.90;;;;;;5005729;28;20037;-62
2023/05/01 00:30:33;;;;;;;10.98;6.05;;;9.30;99.90;;;;;;5018398;28;20060;-61
2023/05/01 00:33:00;;;;;;;11.27;6.63;;;9.30;99.90;;;;;;5023222;28;20665;-62
2023/05/01 00:35:26;;;;;;;10.18;6.72;;;8.90;99.90;;;;;;5000200;28;20034;-61
2023/05/01 00:37:52;;;;;;;12.82;6.60;;;9.30;99.90;;;;;;5030101;28;20042;-61
2023/05/01 00:40:18;;;;;;;8.88;6.10;;;9.30;99.90;;;;;;5002275;28;20037;-62
2023/05/01 00:42:43;;;;;;;10.23;6.95;;;9.30;99.90;;;;;;5001398;28;20045;-62
2023/05/01 00:45:10;;;;;;;11.18;6.18;;;9.30;99.90;;;;;;5018253;28;20037;-61
2023/05/01 00:47:37;;;;;;;10.35;5.90;;;9.20;99.90;;;;;;5010515;28;20095;-61
2023/05/01 00:50:04;;;;;;;12.15;5.97;;;9.20;99.90;;;;;;5023072;28;20056;-61
2023/05/01 00:52:30;;;;;;;11.60;7.05;;;9.20;99.90;;;;;;5043876;28;20130;-61
2023/05/01 00:54:56;;;;;;;11.48;6.72;;;9.20;99.90;;;;;;5018086;28;20065;-61
2023/05/01 00:57:22;;;;;;;14.45;6.82;;;9.20;99.90;;;;;;5044762;28;20030;-61
2023/05/01 00:59:48;;;;;;;13.75;6.93;;;9.30;99.90;;;;;;5022250;28;20539;-62
2023/05/01 01:02:14;;;;;;;11.10;6.10;;;9.30;99.90;;;;;;5023248;28;20048;-62
2023/05/01 01:04:45;;;;;;;9.50;6.20;;;9.30;99.90;;;;;;5037804;28;20072;-61
2023/05/01 01:07:20;;;;;;;11.93;6.05;;;9.30;99.90;;;;;;4995676;28;20034;-61
2023/05/01 01:10:04;;;;;;;11.32;6.18;;;9.20;99.90;;;;;;5020012;28;20136;-61
2023/05/01 01:12:42;;;;;;;10.70;6.07;;;9.30;99.90;;;;;;5021852;28;20342;-61
2023/05/01 01:15:20;;;;;;;12.85;6.20;;;9.30;99.90;;;;;;5023322;28;20045;-61
2023/05/01 01:18:08;;;;;;;8.70;5.93;;;9.30;99.90;;;;;;5022416;28;20054;-62
2023/05/01 01:20:45;;;;;;;9.57;5.70;;;9.30;99.90;;;;;;5027189;28;20045;-61
2023/05/01 01:23:23;;;;;;;10.77;6.30;;;9.20;99.90;;;;;;5025218;28;20435;-61
2023/05/01 01:26:08;;;;;;;9.35;5.55;;;9.20;99.90;;;;;;5017210;28;20073;-62
2023/05/01 01:28:53;;;;;;;7.70;5.93;;;9.20;99.90;;;;;;5025756;28;20099;-61
2023/05/01 01:31:56;;;;;;;11.02;6.03;;;9.20;99.90;;;;;;5022840;28;20523;-61
2023/05/01 01:34:38;;;;;;;8.70;5.82;;;9.10;99.90;;;;;;5020107;28;20572;-61
2023/05/01 01:37:16;;;;;;;11.82;6.18;;;9.10;99.90;;;;;;5023152;28;20045;-61
2023/05/01 01:39:45;;;;;;;10.45;6.35;;;9.10;99.90;;;;;;5003425;28;20049;-61
2023/05/01 01:42:18;;;;;;;7.30;5.05;;;9.10;99.90;;;;;;5006849;28;20033;-61
2023/05/01 01:44:51;;;;;;;12.15;6.57;;;9.10;99.90;;;;;;5017408;28;20475;-61
2023/05/01 01:47:19;;;;;;;12.05;7.43;;;9.10;99.90;;;;;;5006537;28;20563;-61
2023/05/01 01:49:48;;;;;;;10.25;6.43;;;9.10;99.90;;;;;;5025796;28;20044;-61
2023/05/01 01:52:16;;;;;;;13.30;6.40;;;9.10;99.90;;;;;;5020788;28;20481;-61
2023/05/01 01:54:59;;;;;;;11.05;6.13;;;9.10;99.90;;;;;;5018336;28;20132;-61
2023/05/01 01:57:27;;;;;;;9.05;6.18;;;9.10;99.90;;;;;;5016875;28;20128;-61
2023/05/01 01:59:54;;;;;;;8.88;5.78;;;9.10;99.90;;;;;;5027442;28;20077;-61
2023/05/01 02:02:22;;;;;;;8.35;5.50;;;9.10;99.90;;;;;;4982316;28;20038;-61
2023/05/01 02:04:49;;;;;;;11.43;6.50;;;9.00;99.90;;;;;;5010663;28;20033;-61
2023/05/01 02:07:16;;;;;;;9.63;6.15;;;9.00;99.90;;;;;;5023049;28;20568;-61
2023/05/01 02:09:43;;;;;;;9.93;5.85;;;9.00;99.90;;;;;;5025794;28;20120;-62
2023/05/01 02:12:11;;;;;;;10.55;5.93;;;8.90;99.90;;;;;;5026979;28;20052;-61
2023/05/01 02:14:37;;;;;;;9.65;5.70;;;9.00;99.90;;;;;;5019360;28;20111;-61
2023/05/01 02:17:04;;;;;;;10.45;6.28;;;9.00;99.90;;;;;;5027577;28;20426;-61
2023/05/01 02:19:32;;;;;;;10.90;6.20;;;9.00;99.90;;;;;;5025661;28;20041;-61
2023/05/01 02:22:00;;;;;;;10.95;5.80;;;9.00;99.90;;;;;;5004048;28;20467;-61
2023/05/01 02:24:29;;;;;;;10.57;5.55;;;9.00;99.90;;;;;;5022069;28;20492;-61
2023/05/01 02:27:08;;;;;;;7.80;5.82;;;8.90;99.90;;;;;;5008053;28;20408;-61
2023/05/01 02:29:34;;;;;;;11.05;5.88;;;8.90;99.90;;;;;;5020131;28;20057;-61
2023/05/01 02:32:00;;;;;;;8.50;5.82;;;8.90;99.90;;;;;;5006924;28;20290;-61
2023/05/01 02:34:26;;;;;;;8.85;6.07;;;8.90;99.90;;;;;;5035053;28;20041;-61
2023/05/01 02:36:52;;;;;;;12.90;7.28;;;8.90;99.90;;;;;;5045176;28;20049;-61
2023/05/01 02:39:18;;;;;;;11.45;5.72;;;8.90;99.90;;;;;;5018333;28;20084;-61
2023/05/01 02:41:45;;;;;;;9.48;5.35;;;8.90;99.90;;;;;;5025593;28;20464;-61
2023/05/01 02:44:12;;;;;;;9.82;5.63;;;8.90;99.90;;;;;;5009667;28;20100;-61
2023/05/01 02:46:42;;;;;;;12.32;6.05;;;8.80;99.90;;;;;;5026283;28;20050;-61
2023/05/01 02:49:09;;;;;;;7.80;5.45;;;8.80;99.90;;;;;;5026146;28;20052;-61
2023/05/01 02:51:36;;;;;;;9.65;6.10;;;8.80;99.90;;;;;;5030219;28;20052;-61
2023/05/01 02:54:02;;;;;;;12.70;5.78;;;8.80;99.90;;;;;;5001410;28;20116;-62
2023/05/01 02:56:28;;;;;;;14.48;6.57;;;8.80;99.90;;;;;;5006153;28;20128;-62
2023/05/01 02:58:55;;;;;;;10.40;6.05;;;8.80;99.90;;;;;;4993542;28;20113;-61
2023/05/01 03:01:20;;;;;;;9.85;6.28;;;8.70;99.90;;;;;;5022225;28;20079;-61
2023/05/01 03:03:46;;;;;;;10.50;5.88;;;8.70;99.90;;;;;;5023664;28;20038;-61
2023/05/01 03:06:15;;;;;;;10.50;4.90;;;8.70;99.90;;;;;;5025168;28;20033;-61
2023/05/01 03:08:41;;;;;;;9.98;5.50;;;8.60;99.90;;;;;;5014433;28;20068;-61
2023/05/01 03:11:07;;;;;;;13.85;5.78;;;8.60;99.90;;;;;;5029520;28;20071;-64
2023/05/01 03:13:33;;;;;;;10.23;5.35;;;8.60;99.90;;;;;;5009163;28;20038;-61
2023/05/01 03:15:59;;;;;;;13.63;5.97;;;8.60;99.90;;;;;;5028699;28;20524;-61
2023/05/01 03:18:25;;;;;;;9.38;5.40;;;8.60;99.90;;;;;;5021144;28;20033;-61
2023/05/01 03:20:55;;;;;;;10.27;5.63;;;8.50;99.90;;;;;;5014227;28;20033;-61
2023/05/01 03:23:22;;;;;;;10.50;5.90;;;8.50;99.90;;;;;;5023968;28;20076;-61
2023/05/01 03:25:48;;;;;;;10.43;5.60;;;8.50;99.90;;;;;;5026755;28;20045;-60
2023/05/01 03:28:15;;;;;;;9.20;5.60;;;8.40;99.90;;;;;;5014056;28;20045;-61
2023/05/01 03:30:41;;;;;;;7.45;5.35;;;8.50;99.90;;;;;;5026322;28;20049;-61
2023/05/01 03:33:07;;;;;;;8.98;5.47;;;7.80;99.90;;;;;;5022954;28;20037;-61
2023/05/01 03:35:32;;;;;;;8.98;5.07;;;8.50;99.90;;;;;;5025035;28;20041;-61
2023/05/01 03:37:58;;;;;;;9.45;5.53;;;8.50;99.90;;;;;;5022479;28;20045;-61
2023/05/01 03:40:24;;;;;;;8.35;6.07;;;8.50;99.90;;;;;;5021253;28;20037;-61
2023/05/01 03:42:49;;;;;;;10.60;5.53;;;8.40;99.90;;;;;;5043356;28;20033;-60
2023/05/01 03:45:15;;;;;;;12.15;6.38;;;8.40;99.90;;;;;;5036053;28;20080;-61
2023/05/01 03:47:41;;;;;;;10.02;7.15;;;8.30;99.90;;;;;;5009915;28;20045;-61
2023/05/01 03:50:08;;;;;;;11.68;6.72;;;8.30;99.90;;;;;;5030752;28;20395;-61
2023/05/01 03:52:33;;;;;;;10.27;6.10;;;8.20;99.90;;;;;;5028373;28;20128;-60
2023/05/01 03:54:59;;;;;;;15.23;6.22;;;8.20;99.90;;;;;;5016794;28;20136;-61
2023/05/01 03:57:26;;;;;;;9.00;4.95;;;8.10;99.90;;;;;;5032349;28;20465;-61
2023/05/01 03:59:52;;;;;;;9.57;5.85;;;8.10;99.90;;;;;;5028094;28;20056;-61
2023/05/01 04:02:18;;;;;;;10.02;5.85;;;8.10;99.90;;;;;;5007062;28;20041;-61
2023/05/01 04:04:44;;;;;;;9.55;6.38;;;8.10;99.90;;;;;;5024006;28;20036;-61
2023/05/01 04:07:10;;;;;;;16.73;6.45;;;8.00;99.90;;;;;;5016964;28;20037;-61
2023/05/01 04:09:36;;;;;;;9.70;6.10;;;8.00;99.90;;;;;;5027455;28;20044;-61
2023/05/01 04:12:02;;;;;;;10.32;6.10;;;8.00;99.90;;;;;;5024418;28;20128;-61
2023/05/01 04:14:28;;;;;;;12.25;7.15;;;7.90;99.90;;;;;;5022589;28;20125;-61
2023/05/01 04:16:54;;;;;;;11.52;6.40;;;7.90;99.90;;;;;;5021593;28;20069;-61
2023/05/01 04:19:19;;;;;;;10.10;6.90;;;7.90;99.90;;;;;;5024193;28;20029;-61
2023/05/01 04:21:46;;;;;;;12.20;6.43;;;7.90;99.90;;;;;;5026991;28;20076;-61
2023/05/01 04:24:12;;;;;;;12.80;6.72;;;7.80;99.90;;;;;;5048847;28;20069;-61
2023/05/01 04:26:38;;;;;;;11.05;6.53;;;7.80;99.90;;;;;;5032183;28;20462;-61
2023/05/01 04:29:04;;;;;;;10.77;6.35;;;7.80;99.90;;;;;;5029294;28;20041;-61
2023/05/01 04:31:29;;;;;;;12.88;7.22;;;7.90;99.90;;;;;;5044906;28;20373;-60
2023/05/01 04:33:55;;;;;;;10.52;6.68;;;7.90;99.90;;;;;;5012301;28;20075;-61
2023/05/01 04:36:21;;;;;;;11.02;6.80;;;7.90;99.90;;;;;;5034555;28;20038;-61
2023/05/01 04:38:48;;;;;;;12.30;7.03;;;7.90;99.90;;;;;;5029062;28;20053;-61
2023/05/01 04:41:13;;;;;;;10.40;5.88;;;7.90;99.90;;;;;;5026429;28;20045;-61
2023/05/01 04:43:39;;;;;;;9.40;7.10;;;7.90;99.90;;;;;;5025373;28;20042;-62
2023/05/01 04:46:05;;;;;;;10.90;6.63;;;7.90;99.90;;;;;;5043636;28;20398;-61
2023/05/01 04:48:30;;;;;;;10.32;6.28;;;7.90;99.90;;;;;;5029398;28;20050;-61
2023/05/01 04:50:57;;;;;;;12.35;6.13;;;7.90;99.90;;;;;;5022330;28;20531;-61
2023/05/01 04:53:23;;;;;;;11.48;6.47;;;7.90;99.90;;;;;;5013759;28;20042;-61
2023/05/01 04:55:49;;;;;;;11.02;6.88;;;8.10;99.90;;;;;;5019702;28;20131;-61
2023/05/01 04:58:15;;;;;;;10.02;6.32;;;8.20;99.90;;;;;;5028027;28;20041;-61
2023/05/01 05:00:40;;;;;;;12.30;7.15;;;8.20;99.90;;;;;;5016768;28;20037;-61
2023/05/01 05:03:06;;;;;;;11.68;6.03;;;8.20;99.90;;;;;;5017112;28;20040;-61
2023/05/01 05:05:32;;;;;;;14.02;7.30;;;8.20;99.90;;;;;;5009812;28;20411;-61
2023/05/01 05:07:58;;;;;;;15.30;6.47;;;8.10;99.90;;;;;;5037442;28;20085;-61
2023/05/01 05:10:24;;;;;;;10.82;6.60;;;8.10;99.90;;;;;;5027813;28;20485;-61
2023/05/01 05:12:50;;;;;;;18.88;7.10;;;8.20;99.90;;;;;;5006835;28;20049;-60
2023/05/01 05:15:16;;;;;;;10.48;7.18;;;8.20;99.90;;;;;;5025569;28;20466;-61
2023/05/01 05:17:41;;;;;;;10.07;6.15;;;8.20;99.90;;;;;;5024349;28;20049;-62
2023/05/01 05:20:07;;;;;;;12.63;7.22;;;8.20;99.90;;;;;;5022641;28;20033;-61
2023/05/01 05:22:36;;;;;;;12.82;6.05;;;8.30;99.90;;;;;;5026914;28;20041;-61
2023/05/01 05:25:04;;;;;;;11.68;7.00;;;8.30;99.90;;;;;;5022636;28;20116;-61
2023/05/01 05:27:35;;;;;;;11.90;6.40;;;8.30;99.90;;;;;;5011192;28;20044;-60
2023/05/01 05:30:01;;;;;;;13.32;7.22;;;8.30;99.90;;;;;;5020012;28;20120;-61
2023/05/01 05:32:28;;;;;;;12.48;6.45;;;8.30;99.90;;;;;;5010541;28;20044;-61
2023/05/01 05:34:53;;;;;;;13.50;7.13;;;8.40;99.90;;;;;;5026127;28;20037;-61
2023/05/01 05:37:19;;;;;;;15.23;7.68;;;8.40;99.90;;;;;;5042687;28;20041;-61
2023/05/01 05:39:45;;;;;;;10.95;7.38;;;8.40;99.90;;;;;;5029175;28;20466;-61
2023/05/01 05:42:10;;;;;;;12.05;6.68;;;8.50;99.90;;;;;;5027009;28;20050;-61
2023/05/01 05:44:38;;;;;;;11.43;7.20;;;8.50;99.90;;;;;;5027854;28;20037;-61
2023/05/01 05:47:03;;;;;;;14.35;7.03;;;8.50;99.90;;;;;;5023834;28;20144;-61
2023/05/01 05:49:29;;;;;;;13.27;7.00;;;8.50;99.90;;;;;;5023735;28;20156;-61
2023/05/01 05:51:55;;;;;;;11.77;6.68;;;8.60;99.90;;;;;;5015517;28;20136;-61
2023/05/01 05:54:21;;;;;;;10.13;6.88;;;8.70;99.90;;;;;;5008412;28;20394;-61
2023/05/01 05:56:46;;;;;;;13.45;7.13;;;8.70;99.90;;;;;;5022106;28;20350;-60
2023/05/01 05:59:12;;;;;;;12.15;6.30;;;8.70;99.90;;;;;;5018958;28;20034;-61
2023/05/01 06:01:39;;;;;;;11.77;6.57;;;8.70;99.90;;;;;;5004162;28;20400;-61
2023/05/01 06:04:05;;;;;;;10.45;6.38;;;8.80;99.90;;;;;;5031508;28;20033;-61
2023/05/01 06:06:32;;;;;;;12.07;6.50;;;8.80;99.90;;;;;;5040300;28;20049;-60
2023/05/01 06:08:57;;;;;;;13.27;6.70;;;8.90;99.90;;;;;;5022866;28;20077;-61
2023/05/01 06:11:23;;;;;;;10.90;6.72;;;8.90;99.90;;;;;;5003049;28;20142;-61
2023/05/01 06:13:49;;;;;;;11.40;6.72;;;8.90;99.90;;;;;;5018603;28;20029;-62
2023/05/01 06:16:15;;;;;;;14.10;7.57;;;9.00;99.90;;;;;;5019404;28;20128;-61
2023/05/01 06:18:41;;;;;;;11.85;7.10;;;9.10;99.90;;;;;;5017159;28;20345;-60
2023/05/01 06:21:06;;;;;;;11.38;7.07;;;9.10;99.90;;;;;;5016649;28;20037;-61
2023/05/01 06:23:32;;;;;;;12.57;7.28;;;9.20;99.90;;;;;;5041274;28;20164;-61
2023/05/01 06:25:59;;;;;;;13.88;8.10;;;9.30;99.90;;;;;;5019046;28;20489;-61
2023/05/01 06:28:24;;;;;;;15.48;7.38;;;9.40;99.90;;;;;;5022556;28;20064;-61
2023/05/01 06:30:50;;;;;;;11.32;6.97;;;9.50;99.90;;;;;;5040464;28;20679;-61
2023/05/01 06:33:16;;;;;;;14.77;8.10;;;9.50;99.90;;;;;;5021938;28;20049;-61
2023/05/01 06:35:41;;;;;;;13.38;7.53;;;9.70;99.90;;;;;;5003595;28;20037;-62
2023/05/01 06:38:07;;;;;;;16.15;7.18;;;9.80;99.90;;;;;;5020810;28;20048;-61
2023/05/01 06:40:34;;;;;;;9.88;6.45;;;10.00;99.90;;;;;;5021226;28;20060;-61
2023/05/01 06:43:03;;;;;;;12.15;6.35;;;10.10;99.90;;;;;;5024910;28;20041;-61
2023/05/01 06:45:29;;;;;;;12.43;6.60;;;10.20;99.90;;;;;;5021567;28;20103;-61
2023/05/01 06:47:54;;;;;;;13.95;7.93;;;10.30;99.90;;;;;;5024191;28;20841;-61
2023/05/01 06:50:20;;;;;;;12.25;6.88;;;10.40;99.90;;;;;;5020233;28;20269;-61
2023/05/01 06:52:46;;;;;;;12.40;6.57;;;10.50;99.90;;;;;;5000427;28;20076;-61
2023/05/01 06:55:12;;;;;;;11.40;6.60;;;10.70;99.90;;;;;;5022315;28;20073;-61
2023/05/01 06:57:38;;;;;;;19.23;7.47;;;10.80;99.90;;;;;;5020394;28;20041;-61
2023/05/01 07:00:05;;;;;;;12.35;6.22;;;10.90;99.90;;;;;;4984627;28;20038;-61
2023/05/01 07:02:31;;;;;;;11.82;6.32;;;11.00;99.90;;;;;;5025082;28;20046;-61
2023/05/01 07:04:57;;;;;;;10.90;6.30;;;11.00;99.90;;;;;;5007186;28;20543;-61
2023/05/01 07:07:23;;;;;;;11.38;6.13;;;11.10;99.90;;;;;;5000936;28;20029;-62
2023/05/01 07:09:48;;;;;;;15.70;6.85;;;11.30;99.90;;;;;;5020380;28;20040;-61
2023/05/01 07:12:14;;;;;;;10.70;7.35;;;11.40;99.90;;;;;;4998598;28;20253;-62
2023/05/01 07:14:40;;;;;;;11.45;6.72;;;11.50;99.90;;;;;;5022863;28;20179;-62
2023/05/01 07:17:08;;;;;;;12.23;6.72;;;11.60;99.90;;;;;;5023197;28;20428;-62
2023/05/01 07:19:34;;;;;;;10.77;6.25;;;11.70;99.90;;;;;;5003650;28;20083;-62
2023/05/01 07:21:59;;;;;;;11.65;6.60;;;11.80;99.90;;;;;;5015139;28;20044;-62
2023/05/01 07:24:25;;;;;;;12.18;5.90;;;11.90;99.90;;;;;;5020137;28;20076;-62
2023/05/01 07:26:51;;;;;;;12.95;6.32;;;12.00;99.90;;;;;;5022376;28;20046;-62
2023/05/01 07:29:17;;;;;;;11.57;6.65;;;12.10;99.90;;;;;;5023914;28;20049;-62
2023/05/01 07:31:43;;;;;;;10.43;6.15;;;12.20;99.90;;;;;;5005442;28;20188;-62
2023/05/01 07:34:10;;;;;;;9.93;6.63;;;12.30;99.90;;;;;;5022731;28;20120;-61
2023/05/01 07:36:36;;;;;;;11.77;6.50;;;12.40;99.90;;;;;;5022163;28;20056;-61
2023/05/01 07:39:03;;;;;;;13.77;6.78;;;12.50;99.90;;;;;;5019604;28;20038;-61
2023/05/01 07:41:29;;;;;;;9.18;5.88;;;12.60;99.90;;;;;;5020825;28;20048;-61
2023/05/01 07:43:58;;;;;;;11.05;5.97;;;12.70;99.90;;;;;;5021386;28;20119;-59
2023/05/01 07:46:24;;;;;;;12.20;6.07;;;12.80;99.90;;;;;;5021656;28;20037;-61
2023/05/01 07:48:50;;;;;;;10.07;5.07;;;12.90;99.90;;;;;;5023203;28;20072;-61
2023/05/01 07:51:17;;;;;;;11.13;5.20;;;13.00;99.90;;;;;;5023105;28;20046;-61
2023/05/01 07:53:43;;;;;;;8.75;5.53;;;13.10;99.90;;;;;;5015232;28;20516;-61
2023/05/01 07:56:09;;;;;;;9.07;5.32;;;13.20;99.90;;;;;;5026301;28;20037;-61
2023/05/01 07:58:36;;;;;;;13.68;6.20;;;13.30;99.90;;;;;;5023981;28;20072;-62
2023/05/01 08:01:02;;;;;;;11.55;5.60;;;13.30;99.90;;;;;;5028004;28;20037;-61
2023/05/01 08:03:31;;;;;;;12.95;5.45;;;13.40;99.90;;;;;;5006289;28;20063;-61
2023/05/01 08:05:57;;;;;;;10.10;4.63;;;13.40;99.90;;;;;;5008574;28;20129;-61
2023/05/01 08:08:23;;;;;;;17.42;5.35;;;13.60;99.90;;;;;;5023110;28;20041;-61
2023/05/01 08:10:50;;;;;;;9.25;4.55;;;13.70;99.90;;;;;;5028418;28;20045;-61
2023/05/01 08:13:17;;;;;;;8.52;4.85;;;13.80;99.90;;;;;;5023749;28;20037;-61
2023/05/01 08:15:45;;;;;;;9.40;4.90;;;13.90;99.90;;;;;;5027565;28;20056;-61
2023/05/01 08:18:11;;;;;;;9.35;4.68;;;13.90;99.90;;;;;;5022131;28;20103;-61
2023/05/01 08:20:37;;;;;;;9.77;4.78;;;14.00;99.90;;;;;;5005635;28;20520;-61
2023/05/01 08:23:03;;;;;;;8.43;4.50;;;14.10;99.90;;;;;;5026224;28;20589;-62
2023/05/01 08:25:30;;;;;;;9.32;3.95;;;14.20;99.90;;;;;;5023611;28;20038;-62
2023/05/01 08:27:56;;;;;;;11.73;4.25;;;14.30;99.90;;;;;;5022283;28;20037;-62
2023/05/01 08:30:22;;;;;;;8.95;4.65;;;14.40;99.90;;;;;;5004613;28;20470;-61
2023/05/01 08:32:48;;;;;;;7.80;4.20;;;14.60;99.90;;;;;;5024318;28;20601;-61
2023/05/01 08:35:13;;;;;;;7.85;4.45;;;14.70;99.90;;;;;;5007545;28;20037;-61
2023/05/01 08:37:39;;;;;;;6.93;3.80;;;14.80;99.30;;;;;;5024807;28;20395;-62
2023/05/01 08:40:07;;;;;;;8.48;3.90;;;14.90;99.50;;;;;;5009584;28;20102;-61
2023/05/01 08:42:36;;;;;;;6.10;3.65;;;15.00;98.90;;;;;;5024629;28;20049;-62
2023/05/01 08:45:03;;;;;;;10.48;4.43;;;15.10;99.40;;;;;;5021874;28;20511;-62
2023/05/01 08:47:29;;;;;;;8.30;3.92;;;15.30;99.90;;;;;;5004801;28;20044;-62
2023/05/01 08:49:57;;;;;;;9.15;4.72;;;15.40;99.40;;;;;;5011582;28;20033;-62
2023/05/01 08:52:25;;;;;;;8.73;4.15;;;15.50;99.30;;;;;;5012298;28;20108;-62
2023/05/01 08:54:55;;;;;;;6.65;3.63;;;15.60;99.50;;;;;;5024758;28;20096;-62
2023/05/01 08:57:21;;;;;;;8.98;4.28;;;15.70;99.40;;;;;;5011331;28;20073;-62
2023/05/01 08:59:49;;;;;;;5.85;3.33;;;15.90;99.10;;;;;;5021410;28;20382;-62
2023/05/01 09:02:16;;;;;;;8.02;3.78;;;16.00;98.50;;;;;;5016051;28;20565;-62
2023/05/01 09:04:42;;;;;;;7.35;3.55;;;16.10;98.70;;;;;;5020844;28;20048;-62
2023/05/01 09:07:08;;;;;;;8.40;3.75;;;16.20;98.60;;;;;;5022675;28;20120;-62
2023/05/01 09:09:35;;;;;;;7.50;3.53;;;16.30;98.50;;;;;;5021278;28;20525;-62
2023/05/01 09:12:23;;;;;;;9.60;4.05;;;16.50;98.10;;;;;;5021926;28;20044;-62
2023/05/01 09:14:50;;;;;;;4.88;3.03;;;16.60;97.80;;;;;;5026562;28;20045;-62
2023/05/01 09:17:16;;;;;;;7.00;3.67;;;16.60;96.50;;;;;;5025823;28;20051;-62
2023/05/01 09:19:42;;;;;;;10.52;4.43;;;16.60;96.90;;;;;;5005342;28;20046;-62
2023/05/01 09:22:08;;;;;;;7.70;3.80;;;16.70;96.60;;;;;;5026821;28;20041;-62
2023/05/01 09:24:34;;;;;;;8.27;4.10;;;16.60;97.00;;;;;;5024566;28;20120;-61
2023/05/01 09:27:00;;;;;;;7.47;3.53;;;16.70;96.40;;;;;;5012478;28;20459;-62
2023/05/01 09:29:46;;;;;;;6.53;3.47;;;16.60;96.90;;;;;;5020141;28;20133;-62
2023/05/01 09:32:28;;;;;;;8.63;3.75;;;16.60;96.10;;;;;;5046342;28;20045;-62
2023/05/01 09:34:55;;;;;;;7.38;3.20;;;16.40;95.90;;;;;;5021896;28;20033;-62
2023/05/01 09:37:28;;;;;;;5.78;3.30;;;16.30;96.20;;;;;;5025273;28;20116;-62
2023/05/01 09:40:08;;;;;;;5.53;3.50;;;16.30;96.10;;;;;;5025385;28;20546;-62
2023/05/01 09:42:38;;;;;;;5.60;3.65;;;16.30;96.30;;;;;;5023561;28;20054;-62
2023/05/01 09:45:14;;;;;;;8.35;3.55;;;16.40;96.80;;;;;;5026351;28;20037;-62
2023/05/01 09:47:42;;;;;;;6.55;3.30;;;16.60;96.30;;;;;;5019522;28;20318;-62
2023/05/01 09:50:09;;;;;;;8.88;3.40;;;16.80;96.80;;;;;;5019754;28;20114;-61
2023/05/01 09:52:35;;;;;;;8.40;3.72;;;17.00;96.60;;;;;;5021000;28;20044;-62
2023/05/01 09:55:11;;;;;;;6.57;3.22;;;16.90;95.50;;;;;;5001861;28;20037;-61
2023/05/01 09:57:37;;;;;;;5.72;2.92;;;16.80;96.00;;;;;;5019732;28;20041;-62
2023/05/01 10:00:07;;;;;;;6.13;3.10;;;17.00;95.60;;;;;;5024550;28;20033;-62
2023/05/01 10:02:33;;;;;;;6.72;2.97;;;17.10;96.00;;;;;;5016772;28;20058;-62
2023/05/01 10:04:59;;;;;;;8.25;3.30;;;17.20;95.10;;;;;;5020496;28;20044;-62
2023/05/01 10:07:26;;;;;;;4.85;2.75;;;17.30;95.50;;;;;;5003379;28;20038;-62
2023/05/01 10:09:52;;;;;;;6.82;3.17;;;17.40;95.10;;;;;;5023960;28;20041;-61
2023/05/01 10:12:25;;;;;;;8.02;3.63;;;17.50;95.00;;;;;;5021560;28;20041;-62
2023/05/01 10:14:56;;;;;;;5.90;3.27;;;17.50;93.80;;;;;;5037729;28;20120;-62
2023/05/01 10:17:22;;;;;;;5.40;2.70;;;17.70;94.50;;;;;;5027769;28;20037;-62
2023/05/01 10:19:49;;;;;;;5.38;2.63;;;17.50;93.50;;;;;;5016164;28;20034;-62
2023/05/01 10:22:15;;;;;;;6.95;2.97;;;17.70;94.60;;;;;;5008810;28;20672;-62
2023/05/01 10:24:44;;;;;;;7.65;3.15;;;17.50;93.20;;;;;;5003538;28;20073;-61
2023/05/01 10:27:12;;;;;;;5.63;3.25;;;17.60;94.70;;;;;;5005568;28;20045;-62
2023/05/01 10:29:41;;;;;;;6.75;3.03;;;17.90;94.40;;;;;;5017326;28;20041;-62
2023/05/01 10:32:08;;;;;;;7.80;3.08;;;17.70;93.70;;;;;;5022611;28;20488;-63
2023/05/01 10:34:38;;;;;;;8.70;3.42;;;17.70;93.90;;;;;;5021489;28;20131;-60
2023/05/01 10:37:11;;;;;;;5.47;3.15;;;17.90;94.20;;;;;;5020059;28;20710;-62
2023/05/01 10:39:37;;;;;;;4.50;2.75;;;18.00;93.10;;;;;;5018835;28;20041;-62
2023/05/01 10:42:07;;;;;;;5.35;2.78;;;17.60;92.70;;;;;;5022857;28;20048;-62
2023/05/01 10:44:33;;;;;;;5.70;2.50;;;17.70;93.50;;;;;;5019898;28;20440;-62
2023/05/01 10:47:05;;;;;;;5.68;3.00;;;18.00;93.40;;;;;;5037934;28;20037;-62
2023/05/01 10:50:07;;;;;;;4.20;3.03;;;18.20;93.00;;;;;;5022936;28;20627;-61
2023/05/01 10:53:14;;;;;;;6.65;3.80;;;18.30;92.30;;;;;;5032927;28;20049;-64
2023/05/01 10:55:42;;;;;;;4.55;2.45;;;18.00;91.30;;;;;;5019372;28;20628;-61
2023/05/01 10:58:09;;;;;;;4.40;2.65;;;18.00;92.60;;;;;;5039344;28;20604;-64
2023/05/01 11:00:35;;;;;;;6.25;2.60;;;18.10;93.20;;;;;;5023824;28;20096;-64
2023/05/01 11:03:20;;;;;;;6.03;2.33;;;18.30;93.50;;;;;;5036772;28;20037;-61
2023/05/01 11:06:03;;;;;;;3.83;1.90;;;18.20;92.10;;;;;;5020022;28;20069;-61
2023/05/01 11:08:33;;;;;;;2.83;1.30;;;18.00;90.90;;;;;;5018552;28;20033;-62
2023/05/01 11:11:24;;;;;;;3.85;1.33;;;18.00;91.10;;;;;;5022162;28;20048;-61
2023/05/01 11:14:10;;;;;;;4.57;2.55;;;17.90;90.70;;;;;;5022508;28;20601;-63
2023/05/01 11:16:39;;;;;;;3.83;1.67;;;17.90;91.20;;;;;;5022296;28;20079;-61
2023/05/01 11:19:29;;;;;;;3.80;1.60;;;17.60;91.90;;;;;;5049905;22;20165;-63
2023/05/01 11:21:59;;;;;;;4.13;1.75;;;17.70;92.30;;;;;;5018568;28;20192;-62
2023/05/01 11:24:31;;;;;;;4.65;1.90;;;17.80;92.80;;;;;;5038159;28;20411;-65
2023/05/01 11:27:01;;;;;;;3.45;1.77;;;17.60;91.60;;;;;;5034372;28;20052;-62
2023/05/01 11:29:31;;;;;;;4.93;2.15;;;17.50;92.60;;;;;;5020330;28;20037;-62
2023/05/01 11:31:57;;;;;;;4.68;1.98;;;17.50;92.60;;;;;;5039473;28;20140;-62
2023/05/01 11:34:24;;;;;;;4.90;1.98;;;17.70;92.50;;;;;;5024423;28;21575;-62
2023/05/01 11:36:51;;;;;;;4.85;1.73;;;17.70;92.30;;;;;;5020900;28;20046;-65
2023/05/01 11:39:18;;;;;;;5.53;2.30;;;17.70;92.80;;;;;;5038572;28;20488;-63
2023/05/01 11:41:44;;;;;;;4.38;2.00;;;17.60;92.40;;;;;;5024771;28;20420;-63
2023/05/01 11:44:16;;;;;;;3.25;2.30;;;17.60;93.30;;;;;;5043825;28;20562;-63
2023/05/01 11:46:41;;;;;;;7.25;2.65;;;17.60;93.10;;;;;;5036892;28;20465;-63
2023/05/01 11:49:08;;;;;;;3.63;2.30;;;17.60;93.30;;;;;;5036428;28;20034;-62
2023/05/01 11:51:34;;;;;;;5.10;2.65;;;17.70;93.10;;;;;;5042152;28;20037;-64
2023/05/01 11:54:11;;;;;;;5.15;3.10;;;17.60;93.10;;;;;;5038294;28;20034;-62
2023/05/01 11:56:39;;;;;;;9.23;3.35;;;17.50;93.60;;;;;;5034335;28;20056;-62
2023/05/01 11:59:14;;;;;;;9.15;3.55;;;17.30;93.90;;;;;;5022530;28;20511;-62
2023/05/01 12:01:43;;;;;;;8.60;3.25;;;17.20;94.30;;;;;;5040956;28;20049;-64
2023/05/01 12:07:43;;;;;;;6.60;3.15;;;17.10;94.40;;;;;;5037453;28;20048;-62
2023/05/01 12:10:09;;;;;;;8.35;3.65;;;17.00;94.90;;;;;;5022247;28;20399;-62
2023/05/01 12:12:35;;;;;;;8.90;4.10;;;16.90;94.50;;;;;;5022341;28;20492;-62
2023/05/01 12:15:02;;;;;;;6.15;2.80;;;16.80;94.50;;;;;;5018457;28;20044;-62
2023/05/01 12:17:28;;;;;;;7.03;3.85;;;16.70;95.00;;;;;;5039197;28;20068;-64
2023/05/01 12:19:54;;;;;;;9.80;3.92;;;16.50;95.30;;;;;;5037757;28;20124;-62
2023/05/01 12:22:20;;;;;;;5.93;3.03;;;16.50;95.50;;;;;;5044218;28;20128;-62
2023/05/01 12:24:51;;;;;;;10.40;3.72;;;16.50;95.90;;;;;;5036443;28;20190;-63
2023/05/01 12:27:18;;;;;;;7.55;3.72;;;16.40;95.60;;;;;;5073708;28;20047;-62
2023/05/01 12:29:46;;;;;;;7.32;3.13;;;16.20;95.90;;;;;;5004303;28;20052;-64
2023/05/01 12:32:13;;;;;;;6.60;3.28;;;16.10;96.00;;;;;;5030666;28;20049;-64
2023/05/01 12:34:39;;;;;;;8.50;3.70;;;16.20;96.30;;;;;;5036777;28;20081;-62
2023/05/01 12:37:05;;;;;;;10.48;4.93;;;16.20;96.00;;;;;;5022755;28;20045;-62
2023/05/01 12:39:43;;;;;;;7.47;4.57;;;16.10;95.90;;;;;;5017973;28;20056;-62
2023/05/01 12:42:16;;;;;;;7.30;4.60;;;16.20;96.20;;;;;;5043699;28;20037;-65
2023/05/01 12:44:42;;;;;;;8.27;5.35;;;16.10;96.50;;;;;;5041249;28;20434;-63
2023/05/01 12:47:08;;;;;;;11.98;6.15;;;16.10;96.80;;;;;;5043747;28;20041;-62
2023/05/01 12:49:36;;;;;;;9.48;6.00;;;16.00;97.00;;;;;;5020154;28;20048;-62
2023/05/01 12:52:06;;;;;;;10.77;7.07;;;16.00;97.20;;;;;;5026620;28;20444;-62
2023/05/01 12:54:33;;;;;;;14.18;7.10;;;16.10;97.30;;;;;;5038272;28;20041;-63
2023/05/01 12:57:13;;;;;;;9.73;6.93;;;16.10;97.60;;;;;;5022747;28;20131;-64